Carnival Liberty — HPYE — position and weather

sailwx.info

Track history (hours):
 
Tides and Currents Weather Stations Pressure Air Temp Water Temp Dewpoint Dewpoint Depression Visibility Wind Speed Wind Dir Waves Ship Positions

Carnival Liberty

Last reported at 2017-May-25 02:48 UTC. Time now 2017-May-25 02:58 UTC.
Position N 27°37' W 079°31'.

Type: Passenger vessel. MMSI: 371083000.

Date/timePositionNaut miles runAvg speedWind from/ knotsBaromVisibWave heightAir tempDewpointWater temp
2017-May-25 02:48N 27°37' W 079°31'4510.1
2017-May-24 22:18N 26°51' W 079°29'310.4
2017-May-24 22:01N 26°48' W 079°28'5 9.7
2017-May-24 21:31N 26°43' W 079°27'4 8.8
2017-May-24 21:00N 26°39' W 079°25'5 9.3
2017-May-24 20:28N 26°35' W 079°24'510.2
2017-May-24 20:01N 26°30' W 079°26'5 9.9
2017-May-24 19:30N 26°25' W 079°25'5 9.2
2017-May-24 19:00N 26°21' W 079°24'4 7.4
2017-May-24 18:30N 26°20' W 079°20'4 7.2
2017-May-24 18:00N 26°20' W 079°16'4 7.4
2017-May-24 17:27N 26°20' W 079°11'48 8.7
2017-May-24 12:00N 26°18' W 078°18'34 6.1 150 / 321012.010.8 25.022.026.0
2017-May-24 06:22N 25°59' W 077°46'3 7.9
2017-May-24 06:00N 25°57' W 077°44'13 0.5
2017-May-23 03:37N 26°00' W 077°58'1 9.5
2017-May-23 03:29N 26°01' W 077°60'5 9.4
2017-May-23 02:58N 26°04' W 078°04'  
2017-May-20 20:33N 26°35' W 079°26'110.4
2017-May-20 20:30N 26°35' W 079°26'510.2
2017-May-20 20:00N 26°30' W 079°25'510.2
2017-May-20 19:30N 26°24' W 079°24'4 8.5
2017-May-20 19:00N 26°20' W 079°23'4 7.5
2017-May-20 18:30N 26°20' W 079°19'4 7.4
2017-May-20 18:00N 26°20' W 079°15'5 7.2
2017-May-20 17:15N 26°20' W 079°09'62 8.5
2017-May-20 10:00N 26°18' W 078°00'25 1.0 110 / 151017.010.8 25.020.528.0
2017-May-19 10:00N 25°54' W 077°54'   090 / 251016.010.8 26.023.128.0
2017-May-15 18:21N 26°28' W 079°10'44 5.3
2017-May-15 10:00N 27°06' W 079°36'   070 / 71013.010.8 25.020.528.0
Track history (hours):
 
Tides and Currents Weather Stations Pressure Air Temp Water Temp Dewpoint Dewpoint Depression Visibility Wind Speed Wind Dir Waves Ship Positions

Carnival Liberty

Last reported at 2017-May-25 02:48 UTC. Time now 2017-May-25 02:58 UTC.
Position N 27°37' W 079°31'.

Type: Passenger vessel. MMSI: 371083000.

Date/timePositionNaut miles runAvg speedWind from/ knotsBaromVisibWave heightAir tempDewpointWater temp
2017-May-25 02:48N 27°37' W 079°31'4510.1
2017-May-24 22:18N 26°51' W 079°29'310.4
2017-May-24 22:01N 26°48' W 079°28'5 9.7
2017-May-24 21:31N 26°43' W 079°27'4 8.8
2017-May-24 21:00N 26°39' W 079°25'5 9.3
2017-May-24 20:28N 26°35' W 079°24'510.2
2017-May-24 20:01N 26°30' W 079°26'5 9.9
2017-May-24 19:30N 26°25' W 079°25'5 9.2
2017-May-24 19:00N 26°21' W 079°24'4 7.4
2017-May-24 18:30N 26°20' W 079°20'4 7.2
2017-May-24 18:00N 26°20' W 079°16'4 7.4
2017-May-24 17:27N 26°20' W 079°11'48 8.7
2017-May-24 12:00N 26°18' W 078°18'34 6.1 150 / 321012.010.8 25.022.026.0
2017-May-24 06:22N 25°59' W 077°46'3 7.9
2017-May-24 06:00N 25°57' W 077°44'13 0.5
2017-May-23 03:37N 26°00' W 077°58'1 9.5
2017-May-23 03:29N 26°01' W 077°60'5 9.4
2017-May-23 02:58N 26°04' W 078°04'  
2017-May-20 20:33N 26°35' W 079°26'110.4
2017-May-20 20:30N 26°35' W 079°26'510.2
2017-May-20 20:00N 26°30' W 079°25'510.2
2017-May-20 19:30N 26°24' W 079°24'4 8.5
2017-May-20 19:00N 26°20' W 079°23'4 7.5
2017-May-20 18:30N 26°20' W 079°19'4 7.4
2017-May-20 18:00N 26°20' W 079°15'5 7.2
2017-May-20 17:15N 26°20' W 079°09'62 8.5
2017-May-20 10:00N 26°18' W 078°00'25 1.0 110 / 151017.010.8 25.020.528.0
2017-May-19 10:00N 25°54' W 077°54'   090 / 251016.010.8 26.023.128.0
2017-May-15 18:21N 26°28' W 079°10'44 5.3
2017-May-15 10:00N 27°06' W 079°36'   070 / 71013.010.8 25.020.528.0

Dump ship's entire track history